createdAt,value
2018-04-07T00:01:54.140Z,2.83
2018-04-07T00:04:21.703Z,3.00
2018-04-07T00:06:50.061Z,2.93
2018-04-07T00:09:17.619Z,2.70
2018-04-07T00:11:45.141Z,2.90
2018-04-07T00:14:13.453Z,2.83
2018-04-07T00:16:40.999Z,2.57
2018-04-07T00:19:08.560Z,2.37
2018-04-07T00:21:36.086Z,2.67
2018-04-07T00:24:04.414Z,2.97
2018-04-07T00:26:31.952Z,2.80
2018-04-07T00:28:59.517Z,2.43
2018-04-07T00:31:27.043Z,2.67
2018-04-07T00:33:55.422Z,2.77
2018-04-07T00:36:23.723Z,2.80
2018-04-07T00:38:51.291Z,2.73
2018-04-07T00:41:18.843Z,2.57
2018-04-07T00:43:46.390Z,3.30
2018-04-07T00:46:14.814Z,2.60
2018-04-07T00:48:42.359Z,3.00
2018-04-07T00:51:09.917Z,2.53
2018-04-07T00:53:37.475Z,2.87
2018-04-07T00:56:05.103Z,2.80
2018-04-07T00:58:34.217Z,3.10
2018-04-07T01:01:02.561Z,2.77
2018-04-07T01:03:30.103Z,3.23
2018-04-07T01:05:57.667Z,3.17
2018-04-07T01:08:25.226Z,3.27
2018-04-07T01:10:52.758Z,3.00
2018-04-07T01:13:20.293Z,3.30
2018-04-07T01:15:48.591Z,2.50
2018-04-07T01:18:16.144Z,3.07
2018-04-07T01:20:43.680Z,2.90
2018-04-07T01:23:11.240Z,2.83
2018-04-07T01:25:39.573Z,2.97
2018-04-07T01:28:07.150Z,3.17
2018-04-07T01:30:34.675Z,2.70
2018-04-07T01:33:02.205Z,3.10
2018-04-07T01:35:30.530Z,3.27
2018-04-07T01:37:58.063Z,3.10
2018-04-07T01:40:25.629Z,3.27
2018-04-07T01:42:53.166Z,2.60
2018-04-07T01:45:21.504Z,3.03
2018-04-07T01:47:49.053Z,3.67
2018-04-07T01:50:16.601Z,3.33
2018-04-07T01:52:44.145Z,3.27
2018-04-07T01:55:11.724Z,3.33
2018-04-07T01:57:39.257Z,3.50
2018-04-07T02:00:06.818Z,3.80
2018-04-07T02:02:34.373Z,3.80
2018-04-07T02:05:01.905Z,2.97
2018-04-07T02:07:30.233Z,3.93
2018-04-07T02:09:57.786Z,3.97
2018-04-07T02:12:25.354Z,3.37
2018-04-07T02:14:52.882Z,3.40
2018-04-07T02:17:21.221Z,3.10
2018-04-07T02:19:48.958Z,3.23
2018-04-07T02:22:16.504Z,3.63
2018-04-07T02:24:44.037Z,3.10
2018-04-07T02:27:11.593Z,3.17
2018-04-07T02:29:39.898Z,2.67
2018-04-07T02:32:07.484Z,3.00
2018-04-07T02:34:35.017Z,2.70
2018-04-07T02:37:02.602Z,2.97
2018-04-07T02:39:30.162Z,2.83
2018-04-07T02:41:57.718Z,3.40
2018-04-07T02:44:25.285Z,3.40
2018-04-07T02:46:52.835Z,3.40
2018-04-07T02:49:20.382Z,3.80
2018-04-07T02:51:47.925Z,3.63
2018-04-07T02:54:15.476Z,3.20
2018-04-07T02:56:43.774Z,3.90
2018-04-07T02:59:11.333Z,3.47
2018-04-07T03:01:38.878Z,3.13
2018-04-07T03:04:07.195Z,3.60
2018-04-07T03:06:34.725Z,3.50
2018-04-07T03:09:02.277Z,3.70
2018-04-07T03:11:30.586Z,3.37
2018-04-07T03:13:58.152Z,3.40
2018-04-07T03:16:25.687Z,3.80
2018-04-07T03:18:53.268Z,3.53
2018-04-07T03:21:20.826Z,3.90
2018-04-07T03:23:48.373Z,3.73
2018-04-07T03:26:15.916Z,3.37
2018-04-07T03:28:44.244Z,3.70
2018-04-07T03:31:11.766Z,4.03
2018-04-07T03:33:40.074Z,3.70
2018-04-07T03:36:07.675Z,3.93
2018-04-07T03:38:35.204Z,4.07
2018-04-07T03:41:02.767Z,4.47
2018-04-07T03:43:30.334Z,4.27
2018-04-07T03:45:57.884Z,4.13
2018-04-07T03:48:25.419Z,4.13
2018-04-07T03:50:53.003Z,4.33
2018-04-07T03:53:20.552Z,3.67
2018-04-07T03:55:48.170Z,4.30
2018-04-07T03:58:16.462Z,4.70
2018-04-07T04:00:44.769Z,4.17
2018-04-07T04:03:12.330Z,3.80
2018-04-07T04:05:39.870Z,3.93
2018-04-07T04:08:07.437Z,4.83
2018-04-07T04:10:34.988Z,4.17
2018-04-07T04:13:02.560Z,3.90
2018-04-07T04:15:30.121Z,4.00
2018-04-07T04:17:57.791Z,4.53
2018-04-07T04:20:25.339Z,4.50
2018-04-07T04:22:52.901Z,4.37
2018-04-07T04:25:20.457Z,4.53
2018-04-07T04:27:48.001Z,4.77
2018-04-07T04:30:16.341Z,3.77
2018-04-07T04:32:44.087Z,4.60
2018-04-07T04:35:11.659Z,4.37
2018-04-07T04:37:39.199Z,4.03
2018-04-07T04:40:06.737Z,4.27
2018-04-07T04:42:34.282Z,4.73
2018-04-07T04:45:01.861Z,4.40
2018-04-07T04:47:30.349Z,4.03
2018-04-07T04:49:57.895Z,4.37
2018-04-07T04:52:25.450Z,4.83
2018-04-07T04:54:52.998Z,5.33
2018-04-07T04:57:21.340Z,5.57
2018-04-07T04:59:48.882Z,5.73
2018-04-07T05:02:16.427Z,5.03
2018-04-07T05:04:43.964Z,4.30
2018-04-07T05:07:11.530Z,5.60
2018-04-07T05:09:39.818Z,5.30
2018-04-07T05:12:07.415Z,4.60
2018-04-07T05:14:34.958Z,4.63
2018-04-07T05:17:02.512Z,5.63
2018-04-07T05:19:30.099Z,4.13
2018-04-07T05:21:57.630Z,4.77
2018-04-07T05:24:25.200Z,4.53
2018-04-07T05:26:52.729Z,4.53
2018-04-07T05:29:22.031Z,4.53
2018-04-07T05:31:50.345Z,4.00
2018-04-07T05:34:17.929Z,4.50
2018-04-07T05:36:45.481Z,4.17
2018-04-07T05:39:13.026Z,4.20
2018-04-07T05:41:40.576Z,3.57
2018-04-07T05:44:08.123Z,4.37
2018-04-07T05:46:35.705Z,4.50
2018-04-07T05:49:03.262Z,4.63
2018-04-07T05:51:30.816Z,4.60
2018-04-07T05:53:58.356Z,4.90
2018-04-07T05:56:25.946Z,4.73
2018-04-07T05:58:53.490Z,4.60
2018-04-07T06:01:21.049Z,4.43
2018-04-07T06:03:48.631Z,4.20
2018-04-07T06:06:16.178Z,4.73
2018-04-07T06:08:43.803Z,4.93
2018-04-07T06:11:11.755Z,4.40
2018-04-07T06:13:39.334Z,4.30
2018-04-07T06:16:06.878Z,3.97
2018-04-07T06:18:34.458Z,4.60
2018-04-07T06:21:02.770Z,4.23
2018-04-07T06:23:30.341Z,4.27
2018-04-07T06:25:57.919Z,4.90
2018-04-07T06:28:25.479Z,5.37
2018-04-07T06:30:53.074Z,4.17
2018-04-07T06:33:20.631Z,4.13
2018-04-07T06:35:48.211Z,4.00
2018-04-07T06:38:16.742Z,3.67
2018-04-07T06:40:44.319Z,3.90
2018-04-07T06:43:11.867Z,4.60
2018-04-07T06:45:39.455Z,4.00
2018-04-07T06:48:07.027Z,3.90
2018-04-07T06:50:34.562Z,3.83
2018-04-07T06:53:02.121Z,4.00
2018-04-07T06:55:29.698Z,3.63
2018-04-07T06:57:57.239Z,4.13
2018-04-07T07:00:25.546Z,3.97
2018-04-07T07:02:53.864Z,4.13
2018-04-07T07:05:21.434Z,3.67
2018-04-07T07:07:48.990Z,3.73
2018-04-07T07:10:16.561Z,4.03
2018-04-07T07:12:44.111Z,4.10
2018-04-07T07:15:11.662Z,4.20
2018-04-07T07:17:39.237Z,4.10
2018-04-07T07:20:06.810Z,3.83
2018-04-07T07:22:34.347Z,3.50
2018-04-07T07:25:01.919Z,4.37
2018-04-07T07:27:29.464Z,4.00
2018-04-07T07:29:57.019Z,3.97
2018-04-07T07:32:24.581Z,3.60
2018-04-07T07:34:52.180Z,4.50
2018-04-07T07:37:19.720Z,4.23
2018-04-07T07:39:47.253Z,4.43
2018-04-07T07:42:14.837Z,4.13
2018-04-07T07:44:42.380Z,4.07
2018-04-07T07:47:09.932Z,3.80
2018-04-07T07:49:37.486Z,3.60
2018-04-07T07:52:05.816Z,4.47
2018-04-07T07:54:33.358Z,4.20
2018-04-07T07:57:00.918Z,3.60
2018-04-07T07:59:28.449Z,4.12
2018-04-07T08:01:56.284Z,3.73
2018-04-07T08:04:23.824Z,3.40
2018-04-07T08:06:51.398Z,3.70
2018-04-07T08:09:18.925Z,3.83
2018-04-07T08:11:46.486Z,3.87
2018-04-07T08:14:14.192Z,3.60
2018-04-07T08:16:41.980Z,4.10
2018-04-07T08:19:10.350Z,3.50
2018-04-07T08:21:38.771Z,3.70
2018-04-07T08:24:06.350Z,3.60
2018-04-07T08:26:33.898Z,4.03
2018-04-07T08:29:01.521Z,3.78
2018-04-07T08:31:29.082Z,4.25
2018-04-07T08:33:56.639Z,3.45
2018-04-07T08:36:25.054Z,3.65
2018-04-07T08:38:52.582Z,4.13
2018-04-07T08:41:20.157Z,3.93
2018-04-07T08:43:47.723Z,3.80
2018-04-07T08:46:15.279Z,3.80
2018-04-07T08:48:42.833Z,3.83
2018-04-07T08:51:10.521Z,3.70
2018-04-07T08:53:39.087Z,3.40
2018-04-07T08:56:06.674Z,3.92
2018-04-07T08:58:34.231Z,4.20
2018-04-07T09:01:01.883Z,3.83
2018-04-07T09:03:29.445Z,3.47
2018-04-07T09:05:56.977Z,3.93
2018-04-07T09:08:25.330Z,3.63
2018-04-07T09:10:53.669Z,3.83
2018-04-07T09:13:21.345Z,3.50
2018-04-07T09:15:48.970Z,3.15
2018-04-07T09:18:17.349Z,3.43
2018-04-07T09:20:44.910Z,3.47
2018-04-07T09:23:12.483Z,3.60
2018-04-07T09:25:40.025Z,3.83
2018-04-07T09:28:07.561Z,3.40
2018-04-07T09:30:35.905Z,3.87
2018-04-07T09:33:04.449Z,3.50
2018-04-07T09:35:32.067Z,3.33
2018-04-07T09:37:59.625Z,3.30
2018-04-07T09:40:27.186Z,4.35
2018-04-07T09:42:54.763Z,3.62
2018-04-07T09:45:22.354Z,3.95
2018-04-07T09:47:49.937Z,3.53
2018-04-07T09:50:17.529Z,3.57
2018-04-07T09:52:45.076Z,3.40
2018-04-07T09:55:12.620Z,3.95
2018-04-07T09:57:42.220Z,4.50
2018-04-07T10:00:09.774Z,4.15
2018-04-07T10:02:37.426Z,3.60
2018-04-07T10:05:04.994Z,3.20
2018-04-07T10:07:32.589Z,3.92
2018-04-07T10:10:00.132Z,3.60
2018-04-07T10:12:27.690Z,3.80
2018-04-07T10:14:55.241Z,3.95
2018-04-07T10:17:22.824Z,3.55
2018-04-07T10:19:50.476Z,3.78
2018-04-07T10:22:18.030Z,4.32
2018-04-07T10:24:45.587Z,3.70
2018-04-07T10:27:13.160Z,3.37
2018-04-07T10:29:40.746Z,3.83
2018-04-07T10:32:08.305Z,4.45
2018-04-07T10:34:35.861Z,3.72
2018-04-07T10:37:03.399Z,4.10
2018-04-07T10:39:31.869Z,3.72
2018-04-07T10:41:59.417Z,3.67
2018-04-07T10:44:26.971Z,3.85
2018-04-07T10:46:55.310Z,3.87
2018-04-07T10:49:22.873Z,4.03
2018-04-07T10:51:50.446Z,4.10
2018-04-07T10:54:17.995Z,4.50
2018-04-07T10:56:45.573Z,3.90
2018-04-07T10:59:13.114Z,3.45
2018-04-07T11:01:40.731Z,3.37
2018-04-07T11:04:08.286Z,4.05
2018-04-07T11:06:35.885Z,4.60
2018-04-07T11:09:03.477Z,3.70
2018-04-07T11:11:31.782Z,3.60
2018-04-07T11:13:59.372Z,4.00
2018-04-07T11:16:26.974Z,3.75
2018-04-07T11:18:54.550Z,3.40
2018-04-07T11:21:22.871Z,4.22
2018-04-07T11:23:50.511Z,4.00
2018-04-07T11:26:18.085Z,3.93
2018-04-07T11:28:45.696Z,4.12
2018-04-07T11:31:13.255Z,3.95
2018-04-07T11:33:40.815Z,4.30
2018-04-07T11:36:08.372Z,4.03
2018-04-07T11:38:35.938Z,3.80
2018-04-07T11:41:03.572Z,3.62
2018-04-07T11:43:31.123Z,3.53
2018-04-07T11:45:58.704Z,4.20
2018-04-07T11:48:26.265Z,3.87
2018-04-07T11:50:53.846Z,3.23
2018-04-07T11:53:21.456Z,3.93
2018-04-07T11:55:49.000Z,4.40
2018-04-07T11:58:16.581Z,4.27
2018-04-07T12:00:44.111Z,3.77
2018-04-07T12:03:11.682Z,3.83
2018-04-07T12:05:39.229Z,3.77
2018-04-07T12:08:06.802Z,3.37
2018-04-07T12:10:34.335Z,3.57
2018-04-07T12:13:02.692Z,3.70
2018-04-07T12:15:30.229Z,3.70
2018-04-07T12:17:57.775Z,3.33
2018-04-07T12:20:25.332Z,3.60
2018-04-07T12:22:52.883Z,3.77
2018-04-07T12:25:20.471Z,3.50
2018-04-07T12:27:48.022Z,3.63
2018-04-07T12:30:15.680Z,3.13
2018-04-07T12:32:44.192Z,3.73
2018-04-07T12:35:11.805Z,3.30
2018-04-07T12:37:39.375Z,3.47
2018-04-07T12:40:07.952Z,3.30
2018-04-07T12:42:36.534Z,3.07
2018-04-07T12:45:04.109Z,3.17
2018-04-07T12:47:31.657Z,3.77
2018-04-07T12:49:59.195Z,3.03
2018-04-07T12:52:27.528Z,3.00
2018-04-07T12:54:55.085Z,3.10
2018-04-07T12:57:22.651Z,3.37
2018-04-07T12:59:50.202Z,3.03
2018-04-07T13:02:17.788Z,3.83
2018-04-07T13:04:45.519Z,3.10
2018-04-07T13:07:13.101Z,3.27
2018-04-07T13:09:40.657Z,3.23
2018-04-07T13:12:08.269Z,2.80
2018-04-07T13:14:35.841Z,2.90
2018-04-07T13:17:04.341Z,2.93
2018-04-07T13:19:31.882Z,2.83
2018-04-07T13:21:59.424Z,3.30
2018-04-07T13:24:27.757Z,2.70
2018-04-07T13:26:55.280Z,2.63
2018-04-07T13:29:22.832Z,2.90
2018-04-07T13:31:50.390Z,3.30
2018-04-07T13:34:18.124Z,2.87
2018-04-07T13:36:45.681Z,3.10
2018-04-07T13:39:13.276Z,3.20
2018-04-07T13:41:40.830Z,3.50
2018-04-07T13:44:09.248Z,3.50
2018-04-07T13:46:36.788Z,3.03
2018-04-07T13:49:04.330Z,2.87
2018-04-07T13:51:32.657Z,2.33
2018-04-07T13:54:00.206Z,2.92
2018-04-07T13:56:27.777Z,2.90
2018-04-07T13:58:55.345Z,2.70
2018-04-07T14:01:22.893Z,2.87
2018-04-07T14:03:50.451Z,2.60
2018-04-07T14:06:18.024Z,2.25
2018-04-07T14:08:45.585Z,2.60
2018-04-07T14:11:13.173Z,2.70
2018-04-07T14:13:40.712Z,2.70
2018-04-07T14:16:08.260Z,2.65
2018-04-07T14:18:35.837Z,2.70
2018-04-07T14:21:04.148Z,2.55
2018-04-07T14:23:32.483Z,3.00
2018-04-07T14:26:00.046Z,2.45
2018-04-07T14:28:27.600Z,2.70
2018-04-07T14:30:55.137Z,2.30
2018-04-07T14:33:22.711Z,2.22
2018-04-07T14:35:50.237Z,2.40
2018-04-07T14:38:17.835Z,2.05
2018-04-07T14:40:45.391Z,2.12
2018-04-07T14:43:12.946Z,2.40
2018-04-07T14:45:40.486Z,2.20
2018-04-07T14:48:08.066Z,1.67
2018-04-07T14:50:35.623Z,2.30
2018-04-07T14:53:03.185Z,2.45
2018-04-07T14:55:30.757Z,2.40
2018-04-07T14:57:58.284Z,2.20
2018-04-07T15:00:25.856Z,1.95
2018-04-07T15:02:53.392Z,2.45
2018-04-07T15:05:21.758Z,2.10
2018-04-07T15:07:49.333Z,2.37
2018-04-07T15:10:16.916Z,2.00
2018-04-07T15:12:44.462Z,2.20
2018-04-07T15:15:12.818Z,1.95
2018-04-07T15:17:40.356Z,2.22
2018-04-07T15:20:07.899Z,1.90
2018-04-07T15:22:35.455Z,2.20
2018-04-07T15:25:02.999Z,2.20
2018-04-07T15:27:30.681Z,2.62
2018-04-07T15:29:58.228Z,2.00
2018-04-07T15:32:25.797Z,2.05
2018-04-07T15:34:53.348Z,2.30
2018-04-07T15:37:20.937Z,2.12
2018-04-07T15:39:48.523Z,2.20
2018-04-07T15:42:16.045Z,2.25
2018-04-07T15:44:43.616Z,2.17
2018-04-07T15:47:11.150Z,2.08
2018-04-07T15:49:38.822Z,2.10
2018-04-07T15:52:06.377Z,2.00
2018-04-07T15:54:33.943Z,2.80
2018-04-07T15:57:01.484Z,2.45
2018-04-07T15:59:29.034Z,2.25
2018-04-07T16:01:57.375Z,2.30
2018-04-07T16:04:24.934Z,2.62
2018-04-07T16:06:52.493Z,2.45
2018-04-07T16:09:20.044Z,2.35
2018-04-07T16:11:47.615Z,2.53
2018-04-07T16:14:15.162Z,2.30
2018-04-07T16:16:42.739Z,2.87
2018-04-07T16:19:10.284Z,2.40
2018-04-07T16:21:38.909Z,2.40
2018-04-07T16:24:06.494Z,2.60
2018-04-07T16:26:34.095Z,2.65
2018-04-07T16:29:01.631Z,2.53
2018-04-07T16:31:29.320Z,2.35
2018-04-07T16:33:56.878Z,2.30
2018-04-07T16:36:24.547Z,2.72
2018-04-07T16:38:52.117Z,2.85
2018-04-07T16:41:20.435Z,2.60
2018-04-07T16:43:48.117Z,2.50
2018-04-07T16:46:15.667Z,2.53
2018-04-07T16:48:43.250Z,2.37
2018-04-07T16:51:10.784Z,3.12
2018-04-07T16:53:38.544Z,3.37
2018-04-07T16:56:06.131Z,3.08
2018-04-07T16:58:33.697Z,3.55
2018-04-07T17:01:01.243Z,3.85
2018-04-07T17:03:28.894Z,3.90
2018-04-07T17:05:56.595Z,3.58
2018-04-07T17:08:24.945Z,3.80
2018-04-07T17:10:52.504Z,3.90
2018-04-07T17:13:20.037Z,3.97
2018-04-07T17:15:48.361Z,4.17
2018-04-07T17:18:16.706Z,3.87
2018-04-07T17:20:44.286Z,4.33
2018-04-07T17:23:11.851Z,4.93
2018-04-07T17:25:39.429Z,4.67
2018-04-07T17:28:07.053Z,4.97
2018-04-07T17:30:34.602Z,4.60
2018-04-07T17:33:02.213Z,5.50
2018-04-07T17:35:29.806Z,5.20
2018-04-07T17:37:57.357Z,5.90
2018-04-07T17:40:24.933Z,5.80
2018-04-07T17:42:53.254Z,5.90
2018-04-07T17:45:20.891Z,5.83
2018-04-07T17:47:49.380Z,6.20
2018-04-07T17:50:16.930Z,5.77
2018-04-07T17:52:44.515Z,5.83
2018-04-07T17:55:12.083Z,5.83
2018-04-07T17:57:39.651Z,5.17
2018-04-07T18:00:07.228Z,5.50
2018-04-07T18:02:34.789Z,5.90
2018-04-07T18:05:02.367Z,5.70
2018-04-07T18:07:30.673Z,6.03
2018-04-07T18:09:58.260Z,5.10
2018-04-07T18:12:25.821Z,5.27
2018-04-07T18:14:53.395Z,5.17
2018-04-07T18:17:20.954Z,6.17
2018-04-07T18:19:48.556Z,6.03
2018-04-07T18:22:16.124Z,5.53
2018-04-07T18:24:44.431Z,6.13
2018-04-07T18:27:12.001Z,5.97
2018-04-07T18:29:39.567Z,6.53
2018-04-07T18:32:07.166Z,6.23
2018-04-07T18:34:34.732Z,6.47
2018-04-07T18:37:02.349Z,6.10
2018-04-07T18:39:29.941Z,6.43
2018-04-07T18:41:57.530Z,6.67
2018-04-07T18:44:25.873Z,5.53
2018-04-07T18:46:53.477Z,6.97
2018-04-07T18:49:21.828Z,7.17
2018-04-07T18:51:49.390Z,7.77
2018-04-07T18:54:16.979Z,9.40
2018-04-07T18:56:44.572Z,8.60
2018-04-07T18:59:12.159Z,8.03
2018-04-07T19:01:39.742Z,8.70
2018-04-07T19:04:07.293Z,9.20
2018-04-07T19:06:34.866Z,9.33
2018-04-07T19:09:02.402Z,9.27
2018-04-07T19:11:30.016Z,8.40
2018-04-07T19:13:57.646Z,8.80
2018-04-07T19:16:25.197Z,9.07
2018-04-07T19:18:53.751Z,8.90
2018-04-07T19:21:21.303Z,8.83
2018-04-07T19:23:48.865Z,10.17
2018-04-07T19:26:16.421Z,9.20
2018-04-07T19:28:44.392Z,10.13
2018-04-07T19:31:11.997Z,9.40
2018-04-07T19:33:39.610Z,9.43
2018-04-07T19:36:07.155Z,9.67
2018-04-07T19:38:34.781Z,10.00
2018-04-07T19:41:02.358Z,9.73
2018-04-07T19:43:31.723Z,9.17
2018-04-07T19:45:59.267Z,10.13
2018-04-07T19:48:26.822Z,8.93
2018-04-07T19:50:54.390Z,8.13
2018-04-07T19:53:21.960Z,8.23
2018-04-07T19:55:49.594Z,8.50
2018-04-07T19:58:17.137Z,8.47
2018-04-07T20:00:45.465Z,8.70
2018-04-07T20:03:14.004Z,8.73
2018-04-07T20:05:41.587Z,8.27
2018-04-07T20:08:09.171Z,8.90
2018-04-07T20:10:36.807Z,8.77
2018-04-07T20:13:04.431Z,8.90
2018-04-07T20:15:32.112Z,8.73
2018-04-07T20:17:59.659Z,9.40
2018-04-07T20:20:30.198Z,9.20
2018-04-07T20:22:57.810Z,9.90
2018-04-07T20:25:25.376Z,9.27
2018-04-07T20:27:52.924Z,10.40
2018-04-07T20:30:20.500Z,9.43
2018-04-07T20:32:48.076Z,9.30
2018-04-07T20:35:16.414Z,10.23
2018-04-07T20:37:44.000Z,9.73
2018-04-07T20:40:11.560Z,10.40
2018-04-07T20:42:39.221Z,10.43
2018-04-07T20:45:06.792Z,10.60
2018-04-07T20:47:34.351Z,10.93
2018-04-07T20:50:01.947Z,11.00
2018-04-07T20:52:29.538Z,11.83
2018-04-07T20:54:57.120Z,12.67
2018-04-07T20:57:24.730Z,12.73
2018-04-07T20:59:52.408Z,12.37
2018-04-07T21:02:20.031Z,11.67
2018-04-07T21:04:48.434Z,11.50
2018-04-07T21:07:15.994Z,10.80
2018-04-07T21:09:43.637Z,10.50
2018-04-07T21:12:11.198Z,10.07
2018-04-07T21:14:38.741Z,10.17
2018-04-07T21:17:06.318Z,9.47
2018-04-07T21:19:34.656Z,10.00
2018-04-07T21:22:02.261Z,10.33
2018-04-07T21:24:29.837Z,9.87
2018-04-07T21:26:58.166Z,9.17
2018-04-07T21:29:25.778Z,9.10
2018-04-07T21:31:53.308Z,9.70
2018-04-07T21:34:20.856Z,9.27
2018-04-07T21:36:48.522Z,9.53
2018-04-07T21:39:16.111Z,9.40
2018-04-07T21:41:43.817Z,10.43
2018-04-07T21:44:11.408Z,9.93
2018-04-07T21:46:39.785Z,9.80
2018-04-07T21:49:08.453Z,9.97
2018-04-07T21:51:36.055Z,9.30
2018-04-07T21:54:04.531Z,9.43
2018-04-07T21:56:32.094Z,9.97
2018-04-07T21:58:59.667Z,9.43
2018-04-07T22:01:28.003Z,9.67
2018-04-07T22:03:55.585Z,9.20
2018-04-07T22:06:23.936Z,10.17
2018-04-07T22:08:51.490Z,9.13
2018-04-07T22:11:19.098Z,9.43
2018-04-07T22:13:46.641Z,9.07
2018-04-07T22:16:14.225Z,9.67
2018-04-07T22:18:41.786Z,10.13
2018-04-07T22:21:10.105Z,9.73
2018-04-07T22:23:37.666Z,9.43
2018-04-07T22:26:05.270Z,9.80
2018-04-07T22:28:32.822Z,10.47
2018-04-07T22:31:00.378Z,10.47
2018-04-07T22:33:27.959Z,10.03
2018-04-07T22:35:55.501Z,10.17
2018-04-07T22:38:23.077Z,9.03
2018-04-07T22:40:50.635Z,9.43
2018-04-07T22:43:18.197Z,9.97
2018-04-07T22:45:45.721Z,9.67
2018-04-07T22:48:13.302Z,8.73
2018-04-07T22:50:40.838Z,9.97
2018-04-07T22:53:08.427Z,10.07
2018-04-07T22:55:36.024Z,9.53
2018-04-07T22:58:03.566Z,9.73
2018-04-07T23:00:31.129Z,8.97
2018-04-07T23:02:59.447Z,8.67
2018-04-07T23:05:27.006Z,8.90
2018-04-07T23:07:54.577Z,9.00
2018-04-07T23:10:22.154Z,9.43
2018-04-07T23:12:49.739Z,8.87
2018-04-07T23:15:17.293Z,9.37
2018-04-07T23:17:44.856Z,8.13
2018-04-07T23:20:12.439Z,8.80
2018-04-07T23:22:40.753Z,8.47
2018-04-07T23:25:08.294Z,8.57
2018-04-07T23:27:35.851Z,8.03
2018-04-07T23:30:03.466Z,8.87
2018-04-07T23:32:31.073Z,7.83
2018-04-07T23:34:58.653Z,7.50
2018-04-07T23:37:26.236Z,8.27
2018-04-07T23:39:53.799Z,8.00
2018-04-07T23:42:21.390Z,7.00
2018-04-07T23:44:48.971Z,8.03
2018-04-07T23:47:16.528Z,6.90
2018-04-07T23:49:45.033Z,7.10
2018-04-07T23:52:12.653Z,7.23
2018-04-07T23:54:40.233Z,7.17
2018-04-07T23:57:07.801Z,7.23
2018-04-07T23:59:35.388Z,6.60
